sensor_id;sensor_type;location;lat;lon;timestamp;pressure;altitude;pressure_sealevel;temperature;humidity
35577;BME280;21680;52.400;16.920;2023-09-07T00:02:17;101637.59;;;17.83;66.74
35577;BME280;21680;52.400;16.920;2023-09-07T00:04:42;101635.59;;;17.77;66.97
35577;BME280;21680;52.400;16.920;2023-09-07T00:07:08;101636.60;;;17.72;67.11
35577;BME280;21680;52.400;16.920;2023-09-07T00:09:33;101636.15;;;17.67;67.18
35577;BME280;21680;52.400;16.920;2023-09-07T00:11:58;101636.13;;;17.61;67.17
35577;BME280;21680;52.400;16.920;2023-09-07T00:14:24;101636.41;;;17.56;67.20
35577;BME280;21680;52.400;16.920;2023-09-07T00:16:49;101639.48;;;17.52;67.51
35577;BME280;21680;52.400;16.920;2023-09-07T00:19:14;101645.60;;;17.50;67.56
35577;BME280;21680;52.400;16.920;2023-09-07T00:21:39;101644.81;;;17.48;67.84
35577;BME280;21680;52.400;16.920;2023-09-07T00:24:06;101641.70;;;17.45;67.86
35577;BME280;21680;52.400;16.920;2023-09-07T00:26:32;101644.44;;;17.45;67.99
35577;BME280;21680;52.400;16.920;2023-09-07T00:28:57;101647.69;;;17.45;68.12
35577;BME280;21680;52.400;16.920;2023-09-07T00:31:23;101644.23;;;17.45;68.13
35577;BME280;21680;52.400;16.920;2023-09-07T00:33:48;101642.92;;;17.46;68.39
35577;BME280;21680;52.400;16.920;2023-09-07T00:36:13;101643.50;;;17.45;68.24
35577;BME280;21680;52.400;16.920;2023-09-07T00:38:38;101643.13;;;17.46;68.32
35577;BME280;21680;52.400;16.920;2023-09-07T00:41:03;101648.05;;;17.45;68.23
35577;BME280;21680;52.400;16.920;2023-09-07T00:43:29;101647.73;;;17.44;68.35
35577;BME280;21680;52.400;16.920;2023-09-07T00:45:55;101649.15;;;17.41;68.46
35577;BME280;21680;52.400;16.920;2023-09-07T00:48:21;101650.52;;;17.39;68.53
35577;BME280;21680;52.400;16.920;2023-09-07T00:50:46;101656.03;;;17.38;68.49
35577;BME280;21680;52.400;16.920;2023-09-07T00:53:14;101657.23;;;17.36;68.74
35577;BME280;21680;52.400;16.920;2023-09-07T00:55:39;101655.31;;;17.35;68.63
35577;BME280;21680;52.400;16.920;2023-09-07T00:58:05;101653.03;;;17.34;68.77
35577;BME280;21680;52.400;16.920;2023-09-07T01:00:30;101653.59;;;17.30;68.74
35577;BME280;21680;52.400;16.920;2023-09-07T01:02:56;101657.02;;;17.27;68.90
35577;BME280;21680;52.400;16.920;2023-09-07T01:05:24;101658.89;;;17.26;68.84
35577;BME280;21680;52.400;16.920;2023-09-07T01:07:57;101657.61;;;17.23;68.78
35577;BME280;21680;52.400;16.920;2023-09-07T01:10:24;101655.96;;;17.19;68.99
35577;BME280;21680;52.400;16.920;2023-09-07T01:12:49;101655.69;;;17.18;69.01
35577;BME280;21680;52.400;16.920;2023-09-07T01:15:14;101655.07;;;17.16;68.90
35577;BME280;21680;52.400;16.920;2023-09-07T01:17:40;101658.58;;;17.15;69.19
35577;BME280;21680;52.400;16.920;2023-09-07T01:20:07;101657.50;;;17.11;69.06
35577;BME280;21680;52.400;16.920;2023-09-07T01:22:35;101658.56;;;17.11;69.09
35577;BME280;21680;52.400;16.920;2023-09-07T01:25:02;101659.88;;;17.11;69.31
35577;BME280;21680;52.400;16.920;2023-09-07T01:27:28;101657.08;;;17.09;69.26
35577;BME280;21680;52.400;16.920;2023-09-07T01:29:53;101662.77;;;17.07;69.24
35577;BME280;21680;52.400;16.920;2023-09-07T01:32:18;101661.81;;;17.05;69.33
35577;BME280;21680;52.400;16.920;2023-09-07T01:34:44;101663.19;;;17.03;69.38
35577;BME280;21680;52.400;16.920;2023-09-07T01:37:09;101657.15;;;17.01;69.32
35577;BME280;21680;52.400;16.920;2023-09-07T01:39:34;101660.35;;;16.99;69.54
35577;BME280;21680;52.400;16.920;2023-09-07T01:41:59;101659.73;;;16.97;69.43
35577;BME280;21680;52.400;16.920;2023-09-07T01:44:25;101659.48;;;16.95;69.52
35577;BME280;21680;52.400;16.920;2023-09-07T01:46:52;101663.00;;;16.93;69.60
35577;BME280;21680;52.400;16.920;2023-09-07T01:49:17;101658.02;;;16.92;69.63
35577;BME280;21680;52.400;16.920;2023-09-07T01:51:42;101661.36;;;16.90;69.64
35577;BME280;21680;52.400;16.920;2023-09-07T01:54:07;101662.67;;;16.89;69.78
35577;BME280;21680;52.400;16.920;2023-09-07T01:56:34;101664.75;;;16.87;69.73
35577;BME280;21680;52.400;16.920;2023-09-07T01:58:59;101661.43;;;16.85;69.96
35577;BME280;21680;52.400;16.920;2023-09-07T02:01:27;101665.88;;;16.83;69.74
35577;BME280;21680;52.400;16.920;2023-09-07T02:03:54;101663.68;;;16.80;70.02
35577;BME280;21680;52.400;16.920;2023-09-07T02:06:20;101663.83;;;16.78;70.02
35577;BME280;21680;52.400;16.920;2023-09-07T02:08:45;101662.04;;;16.74;69.89
35577;BME280;21680;52.400;16.920;2023-09-07T02:11:11;101660.98;;;16.70;69.99
35577;BME280;21680;52.400;16.920;2023-09-07T02:13:36;101664.34;;;16.69;70.08
35577;BME280;21680;52.400;16.920;2023-09-07T02:16:05;101663.58;;;16.65;70.13
35577;BME280;21680;52.400;16.920;2023-09-07T02:18:31;101665.16;;;16.63;70.16
35577;BME280;21680;52.400;16.920;2023-09-07T02:21:04;101666.99;;;16.58;70.25
35577;BME280;21680;52.400;16.920;2023-09-07T02:23:33;101669.36;;;16.54;70.34
35577;BME280;21680;52.400;16.920;2023-09-07T02:25:59;101661.42;;;16.51;70.44
35577;BME280;21680;52.400;16.920;2023-09-07T02:28:25;101659.89;;;16.49;70.47
35577;BME280;21680;52.400;16.920;2023-09-07T02:30:51;101658.48;;;16.48;70.64
35577;BME280;21680;52.400;16.920;2023-09-07T02:33:16;101661.79;;;16.47;70.82
35577;BME280;21680;52.400;16.920;2023-09-07T02:35:42;101658.29;;;16.45;70.82
35577;BME280;21680;52.400;16.920;2023-09-07T02:38:07;101659.13;;;16.43;70.85
35577;BME280;21680;52.400;16.920;2023-09-07T02:40:33;101659.08;;;16.41;70.89
35577;BME280;21680;52.400;16.920;2023-09-07T02:43:04;101663.90;;;16.38;71.01
35577;BME280;21680;52.400;16.920;2023-09-07T02:45:29;101662.05;;;16.35;70.98
35577;BME280;21680;52.400;16.920;2023-09-07T02:47:54;101664.54;;;16.33;70.99
35577;BME280;21680;52.400;16.920;2023-09-07T02:50:20;101663.08;;;16.29;71.04
35577;BME280;21680;52.400;16.920;2023-09-07T02:52:45;101665.89;;;16.27;71.09
35577;BME280;21680;52.400;16.920;2023-09-07T02:55:10;101666.21;;;16.24;71.00
35577;BME280;21680;52.400;16.920;2023-09-07T02:57:35;101665.84;;;16.21;71.17
35577;BME280;21680;52.400;16.920;2023-09-07T03:00:01;101668.27;;;16.19;71.42
35577;BME280;21680;52.400;16.920;2023-09-07T03:02:34;101665.50;;;16.17;71.36
35577;BME280;21680;52.400;16.920;2023-09-07T03:04:59;101663.61;;;16.15;71.41
35577;BME280;21680;52.400;16.920;2023-09-07T03:07:24;101666.58;;;16.14;71.58
35577;BME280;21680;52.400;16.920;2023-09-07T03:09:52;101668.89;;;16.11;71.48
35577;BME280;21680;52.400;16.920;2023-09-07T03:12:17;101669.18;;;16.09;71.68
35577;BME280;21680;52.400;16.920;2023-09-07T03:14:43;101667.67;;;16.06;71.88
35577;BME280;21680;52.400;16.920;2023-09-07T03:17:09;101668.75;;;16.03;71.97
35577;BME280;21680;52.400;16.920;2023-09-07T03:19:35;101670.09;;;16.01;72.09
35577;BME280;21680;52.400;16.920;2023-09-07T03:22:01;101669.19;;;15.98;72.24
35577;BME280;21680;52.400;16.920;2023-09-07T03:24:26;101670.02;;;15.96;72.31
35577;BME280;21680;52.400;16.920;2023-09-07T03:26:53;101667.63;;;15.93;72.35
35577;BME280;21680;52.400;16.920;2023-09-07T03:29:18;101666.52;;;15.89;72.48
35577;BME280;21680;52.400;16.920;2023-09-07T03:31:43;101668.65;;;15.86;72.64
35577;BME280;21680;52.400;16.920;2023-09-07T03:34:08;101668.61;;;15.83;72.63
35577;BME280;21680;52.400;16.920;2023-09-07T03:36:34;101667.47;;;15.81;72.79
35577;BME280;21680;52.400;16.920;2023-09-07T03:38:59;101667.98;;;15.78;72.92
35577;BME280;21680;52.400;16.920;2023-09-07T03:41:24;101669.84;;;15.77;73.06
35577;BME280;21680;52.400;16.920;2023-09-07T03:43:55;101668.45;;;15.76;73.18
35577;BME280;21680;52.400;16.920;2023-09-07T03:46:20;101669.63;;;15.74;73.23
35577;BME280;21680;52.400;16.920;2023-09-07T03:48:45;101670.44;;;15.73;73.22
35577;BME280;21680;52.400;16.920;2023-09-07T03:51:11;101664.91;;;15.71;73.45
35577;BME280;21680;52.400;16.920;2023-09-07T03:53:36;101667.29;;;15.70;73.49
35577;BME280;21680;52.400;16.920;2023-09-07T03:56:02;101669.04;;;15.68;73.46
35577;BME280;21680;52.400;16.920;2023-09-07T03:58:29;101670.92;;;15.66;73.49
35577;BME280;21680;52.400;16.920;2023-09-07T04:00:54;101672.16;;;15.63;73.54
35577;BME280;21680;52.400;16.920;2023-09-07T04:03:19;101675.30;;;15.61;73.74
35577;BME280;21680;52.400;16.920;2023-09-07T04:05:44;101680.42;;;15.60;73.79
35577;BME280;21680;52.400;16.920;2023-09-07T04:08:10;101680.50;;;15.58;73.84
35577;BME280;21680;52.400;16.920;2023-09-07T04:10:38;101680.20;;;15.57;73.78
35577;BME280;21680;52.400;16.920;2023-09-07T04:13:04;101682.75;;;15.56;73.89
35577;BME280;21680;52.400;16.920;2023-09-07T04:15:29;101688.21;;;15.55;73.92
35577;BME280;21680;52.400;16.920;2023-09-07T04:17:56;101689.34;;;15.54;74.05
35577;BME280;21680;52.400;16.920;2023-09-07T04:20:21;101691.88;;;15.53;74.21
35577;BME280;21680;52.400;16.920;2023-09-07T04:22:47;101695.48;;;15.54;74.22
35577;BME280;21680;52.400;16.920;2023-09-07T04:25:12;101702.88;;;15.53;74.31
35577;BME280;21680;52.400;16.920;2023-09-07T04:27:38;101703.78;;;15.53;74.32
35577;BME280;21680;52.400;16.920;2023-09-07T04:30:04;101702.88;;;15.53;74.39
35577;BME280;21680;52.400;16.920;2023-09-07T04:32:29;101698.73;;;15.53;74.50
35577;BME280;21680;52.400;16.920;2023-09-07T04:34:55;101699.66;;;15.53;74.55
35577;BME280;21680;52.400;16.920;2023-09-07T04:37:21;101700.95;;;15.52;74.59
35577;BME280;21680;52.400;16.920;2023-09-07T04:39:51;101702.98;;;15.51;74.72
35577;BME280;21680;52.400;16.920;2023-09-07T04:42:17;101703.67;;;15.52;74.72
35577;BME280;21680;52.400;16.920;2023-09-07T04:44:42;101703.50;;;15.51;74.85
35577;BME280;21680;52.400;16.920;2023-09-07T04:47:07;101703.13;;;15.52;74.84
35577;BME280;21680;52.400;16.920;2023-09-07T04:49:32;101704.48;;;15.54;75.08
35577;BME280;21680;52.400;16.920;2023-09-07T04:51:58;101707.45;;;15.56;75.14
35577;BME280;21680;52.400;16.920;2023-09-07T04:54:24;101708.63;;;15.58;75.20
35577;BME280;21680;52.400;16.920;2023-09-07T04:56:49;101708.42;;;15.59;75.34
35577;BME280;21680;52.400;16.920;2023-09-07T04:59:14;101712.55;;;15.62;75.22
35577;BME280;21680;52.400;16.920;2023-09-07T05:01:39;101711.58;;;15.64;75.31
35577;BME280;21680;52.400;16.920;2023-09-07T05:04:05;101709.70;;;15.65;75.33
35577;BME280;21680;52.400;16.920;2023-09-07T05:06:30;101708.90;;;15.67;75.34
35577;BME280;21680;52.400;16.920;2023-09-07T05:08:55;101707.98;;;15.67;75.41
35577;BME280;21680;52.400;16.920;2023-09-07T05:11:20;101711.92;;;15.68;75.35
35577;BME280;21680;52.400;16.920;2023-09-07T05:13:46;101712.30;;;15.71;75.64
35577;BME280;21680;52.400;16.920;2023-09-07T05:16:11;101713.77;;;15.74;75.71
35577;BME280;21680;52.400;16.920;2023-09-07T05:18:36;101713.98;;;15.77;75.66
35577;BME280;21680;52.400;16.920;2023-09-07T05:21:11;101716.23;;;15.79;75.50
35577;BME280;21680;52.400;16.920;2023-09-07T05:23:36;101716.88;;;15.81;75.63
35577;BME280;21680;52.400;16.920;2023-09-07T05:26:01;101716.23;;;15.83;75.76
35577;BME280;21680;52.400;16.920;2023-09-07T05:28:27;101716.80;;;15.86;75.80
35577;BME280;21680;52.400;16.920;2023-09-07T05:30:52;101721.52;;;15.89;75.83
35577;BME280;21680;52.400;16.920;2023-09-07T05:33:17;101721.73;;;15.92;75.93
35577;BME280;21680;52.400;16.920;2023-09-07T05:35:44;101724.07;;;15.96;75.99
35577;BME280;21680;52.400;16.920;2023-09-07T05:38:11;101722.46;;;16.00;76.01
35577;BME280;21680;52.400;16.920;2023-09-07T05:40:38;101719.37;;;16.04;76.02
35577;BME280;21680;52.400;16.920;2023-09-07T05:43:04;101719.67;;;16.08;76.09
35577;BME280;21680;52.400;16.920;2023-09-07T05:45:31;101721.02;;;16.14;76.13
35577;BME280;21680;52.400;16.920;2023-09-07T05:47:56;101721.70;;;16.18;76.14
35577;BME280;21680;52.400;16.920;2023-09-07T05:50:22;101724.23;;;16.22;76.14
35577;BME280;21680;52.400;16.920;2023-09-07T05:52:47;101724.98;;;16.25;76.19
35577;BME280;21680;52.400;16.920;2023-09-07T05:55:12;101727.59;;;16.31;76.32
35577;BME280;21680;52.400;16.920;2023-09-07T05:57:37;101728.48;;;16.38;76.34
35577;BME280;21680;52.400;16.920;2023-09-07T06:00:03;101722.83;;;16.46;76.28
35577;BME280;21680;52.400;16.920;2023-09-07T06:02:29;101724.11;;;16.57;76.44
35577;BME280;21680;52.400;16.920;2023-09-07T06:04:55;101727.73;;;16.67;76.40
35577;BME280;21680;52.400;16.920;2023-09-07T06:07:21;101731.17;;;16.74;76.11
35577;BME280;21680;52.400;16.920;2023-09-07T06:09:46;101733.24;;;16.79;76.12
35577;BME280;21680;52.400;16.920;2023-09-07T06:12:12;101734.04;;;16.85;76.09
35577;BME280;21680;52.400;16.920;2023-09-07T06:14:38;101737.89;;;16.91;76.22
35577;BME280;21680;52.400;16.920;2023-09-07T06:17:03;101738.71;;;16.99;76.23
35577;BME280;21680;52.400;16.920;2023-09-07T06:19:29;101738.40;;;17.05;76.04
35577;BME280;21680;52.400;16.920;2023-09-07T06:21:54;101740.30;;;17.10;76.18
35577;BME280;21680;52.400;16.920;2023-09-07T06:24:19;101738.52;;;17.16;76.02
35577;BME280;21680;52.400;16.920;2023-09-07T06:26:45;101738.96;;;17.21;76.02
35577;BME280;21680;52.400;16.920;2023-09-07T06:29:11;101739.06;;;17.26;75.97
35577;BME280;21680;52.400;16.920;2023-09-07T06:31:36;101739.12;;;17.32;76.01
35577;BME280;21680;52.400;16.920;2023-09-07T06:34:01;101740.50;;;17.37;76.02
35577;BME280;21680;52.400;16.920;2023-09-07T06:36:29;101739.15;;;17.41;75.98
35577;BME280;21680;52.400;16.920;2023-09-07T06:38:55;101740.14;;;17.46;75.90
35577;BME280;21680;52.400;16.920;2023-09-07T06:41:20;101739.87;;;17.51;75.80
35577;BME280;21680;52.400;16.920;2023-09-07T06:43:45;101743.69;;;17.57;75.81
35577;BME280;21680;52.400;16.920;2023-09-07T06:46:10;101747.63;;;17.65;75.84
35577;BME280;21680;52.400;16.920;2023-09-07T06:48:35;101744.75;;;17.71;75.93
35577;BME280;21680;52.400;16.920;2023-09-07T06:51:02;101748.52;;;17.78;75.90
35577;BME280;21680;52.400;16.920;2023-09-07T06:53:29;101744.29;;;17.86;75.78
35577;BME280;21680;52.400;16.920;2023-09-07T06:55:58;101746.89;;;17.94;75.66
35577;BME280;21680;52.400;16.920;2023-09-07T06:58:23;101745.81;;;18.04;75.60
35577;BME280;21680;52.400;16.920;2023-09-07T07:00:49;101749.87;;;18.14;75.59
35577;BME280;21680;52.400;16.920;2023-09-07T07:03:14;101756.24;;;18.23;75.46
35577;BME280;21680;52.400;16.920;2023-09-07T07:05:39;101758.13;;;18.31;75.35
35577;BME280;21680;52.400;16.920;2023-09-07T07:08:04;101761.23;;;18.40;75.36
35577;BME280;21680;52.400;16.920;2023-09-07T07:10:30;101759.55;;;18.47;75.20
35577;BME280;21680;52.400;16.920;2023-09-07T07:12:55;101756.92;;;18.55;75.13
35577;BME280;21680;52.400;16.920;2023-09-07T07:15:20;101753.11;;;18.64;75.14
35577;BME280;21680;52.400;16.920;2023-09-07T07:17:45;101755.17;;;18.72;75.16
35577;BME280;21680;52.400;16.920;2023-09-07T07:20:11;101755.77;;;18.80;75.05
35577;BME280;21680;52.400;16.920;2023-09-07T07:22:36;101756.19;;;18.89;74.90
35577;BME280;21680;52.400;16.920;2023-09-07T07:25:02;101758.08;;;18.99;74.84
35577;BME280;21680;52.400;16.920;2023-09-07T07:27:31;101762.23;;;19.08;74.75
35577;BME280;21680;52.400;16.920;2023-09-07T07:29:57;101762.11;;;19.16;74.71
35577;BME280;21680;52.400;16.920;2023-09-07T07:32:22;101764.35;;;19.24;74.52
35577;BME280;21680;52.400;16.920;2023-09-07T07:34:47;101761.55;;;19.33;74.48
35577;BME280;21680;52.400;16.920;2023-09-07T07:37:12;101761.80;;;19.41;74.17
35577;BME280;21680;52.400;16.920;2023-09-07T07:39:38;101764.05;;;19.49;74.10
35577;BME280;21680;52.400;16.920;2023-09-07T07:42:03;101765.41;;;19.56;73.90
35577;BME280;21680;52.400;16.920;2023-09-07T07:44:29;101768.23;;;19.63;73.73
35577;BME280;21680;52.400;16.920;2023-09-07T07:46:55;101775.50;;;19.71;73.75
35577;BME280;21680;52.400;16.920;2023-09-07T07:49:20;101775.59;;;19.82;73.58
35577;BME280;21680;52.400;16.920;2023-09-07T07:51:45;101778.66;;;19.90;73.40
35577;BME280;21680;52.400;16.920;2023-09-07T07:54:10;101779.46;;;20.00;73.35
35577;BME280;21680;52.400;16.920;2023-09-07T07:56:36;101778.20;;;20.11;73.26
35577;BME280;21680;52.400;16.920;2023-09-07T07:59:01;101781.80;;;20.23;73.01
35577;BME280;21680;52.400;16.920;2023-09-07T08:01:27;101783.13;;;20.33;72.92
35577;BME280;21680;52.400;16.920;2023-09-07T08:03:52;101778.44;;;20.44;72.79
35577;BME280;21680;52.400;16.920;2023-09-07T08:06:18;101777.45;;;20.56;72.67
35577;BME280;21680;52.400;16.920;2023-09-07T08:08:43;101777.31;;;20.66;72.32
35577;BME280;21680;52.400;16.920;2023-09-07T08:11:09;101780.69;;;20.72;72.13
35577;BME280;21680;52.400;16.920;2023-09-07T08:13:35;101778.09;;;20.78;71.99
35577;BME280;21680;52.400;16.920;2023-09-07T08:16:01;101772.74;;;20.84;71.80
35577;BME280;21680;52.400;16.920;2023-09-07T08:18:27;101777.70;;;20.94;71.73
35577;BME280;21680;52.400;16.920;2023-09-07T08:20:53;101777.54;;;21.04;71.58
35577;BME280;21680;52.400;16.920;2023-09-07T08:23:21;101778.34;;;21.14;71.38
35577;BME280;21680;52.400;16.920;2023-09-07T08:25:47;101774.52;;;21.22;71.25
35577;BME280;21680;52.400;16.920;2023-09-07T08:28:12;101776.95;;;21.29;70.84
35577;BME280;21680;52.400;16.920;2023-09-07T08:30:37;101780.33;;;21.35;70.65
35577;BME280;21680;52.400;16.920;2023-09-07T08:33:03;101773.95;;;21.40;70.47
35577;BME280;21680;52.400;16.920;2023-09-07T08:35:30;101770.38;;;21.47;70.25
35577;BME280;21680;52.400;16.920;2023-09-07T08:38:03;101770.94;;;21.54;69.93
35577;BME280;21680;52.400;16.920;2023-09-07T08:40:33;101772.16;;;21.62;69.90
35577;BME280;21680;52.400;16.920;2023-09-07T08:43:03;101769.97;;;21.70;69.57
35577;BME280;21680;52.400;16.920;2023-09-07T08:45:29;101772.02;;;21.75;69.35
35577;BME280;21680;52.400;16.920;2023-09-07T08:47:55;101768.98;;;21.81;69.19
35577;BME280;21680;52.400;16.920;2023-09-07T08:50:21;101763.98;;;21.90;68.97
35577;BME280;21680;52.400;16.920;2023-09-07T08:52:52;101761.37;;;21.98;68.87
35577;BME280;21680;52.400;16.920;2023-09-07T08:55:17;101762.79;;;22.09;68.70
35577;BME280;21680;52.400;16.920;2023-09-07T08:57:43;101762.36;;;22.20;68.45
35577;BME280;21680;52.400;16.920;2023-09-07T09:00:09;101762.67;;;22.32;68.02
35577;BME280;21680;52.400;16.920;2023-09-07T09:02:40;101759.81;;;22.41;67.83
35577;BME280;21680;52.400;16.920;2023-09-07T09:05:09;101760.42;;;22.48;67.58
35577;BME280;21680;52.400;16.920;2023-09-07T09:07:34;101761.58;;;22.56;67.25
35577;BME280;21680;52.400;16.920;2023-09-07T09:10:04;101755.75;;;22.66;67.11
35577;BME280;21680;52.400;16.920;2023-09-07T09:12:30;101757.12;;;22.74;66.82
35577;BME280;21680;52.400;16.920;2023-09-07T09:14:55;101758.11;;;22.85;66.67
35577;BME280;21680;52.400;16.920;2023-09-07T09:17:20;101758.65;;;22.94;66.26
35577;BME280;21680;52.400;16.920;2023-09-07T09:19:46;101767.50;;;23.05;66.17
35577;BME280;21680;52.400;16.920;2023-09-07T09:22:11;101765.41;;;23.13;65.61
35577;BME280;21680;52.400;16.920;2023-09-07T09:24:37;101763.14;;;23.19;65.31
35577;BME280;21680;52.400;16.920;2023-09-07T09:27:03;101763.84;;;23.26;65.13
35577;BME280;21680;52.400;16.920;2023-09-07T09:29:31;101763.17;;;23.32;64.62
35577;BME280;21680;52.400;16.920;2023-09-07T09:32:00;101760.09;;;23.39;64.52
35577;BME280;21680;52.400;16.920;2023-09-07T09:34:26;101760.30;;;23.47;64.19
35577;BME280;21680;52.400;16.920;2023-09-07T09:36:51;101761.05;;;23.54;63.74
35577;BME280;21680;52.400;16.920;2023-09-07T09:39:23;101762.98;;;23.59;63.80
35577;BME280;21680;52.400;16.920;2023-09-07T09:41:49;101763.45;;;23.67;63.56
35577;BME280;21680;52.400;16.920;2023-09-07T09:44:16;101763.82;;;23.76;63.41
35577;BME280;21680;52.400;16.920;2023-09-07T09:46:42;101760.27;;;23.83;63.03
35577;BME280;21680;52.400;16.920;2023-09-07T09:49:08;101756.60;;;23.88;62.70
35577;BME280;21680;52.400;16.920;2023-09-07T09:51:36;101756.07;;;23.95;62.52
35577;BME280;21680;52.400;16.920;2023-09-07T09:54:03;101753.49;;;24.02;62.15
35577;BME280;21680;52.400;16.920;2023-09-07T09:56:30;101753.64;;;24.09;61.76
35577;BME280;21680;52.400;16.920;2023-09-07T09:58:55;101750.89;;;24.16;61.57
35577;BME280;21680;52.400;16.920;2023-09-07T10:01:20;101749.33;;;24.21;61.22
35577;BME280;21680;52.400;16.920;2023-09-07T10:03:49;101750.94;;;24.29;60.87
35577;BME280;21680;52.400;16.920;2023-09-07T10:06:20;101747.81;;;24.38;60.87
35577;BME280;21680;52.400;16.920;2023-09-07T10:09:03;101743.36;;;24.49;60.58
35577;BME280;21680;52.400;16.920;2023-09-07T10:11:32;101746.00;;;24.63;60.39
35577;BME280;21680;52.400;16.920;2023-09-07T10:13:59;101742.65;;;24.72;59.94
35577;BME280;21680;52.400;16.920;2023-09-07T10:16:25;101742.63;;;24.79;59.70
35577;BME280;21680;52.400;16.920;2023-09-07T10:18:52;101740.21;;;24.85;59.26
35577;BME280;21680;52.400;16.920;2023-09-07T10:21:17;101734.89;;;24.90;59.02
35577;BME280;21680;52.400;16.920;2023-09-07T10:23:44;101735.80;;;24.97;58.54
35577;BME280;21680;52.400;16.920;2023-09-07T10:26:17;101737.98;;;25.08;58.47
35577;BME280;21680;52.400;16.920;2023-09-07T10:28:43;101733.39;;;25.18;58.01
35577;BME280;21680;52.400;16.920;2023-09-07T10:31:17;101732.15;;;25.28;57.70
35577;BME280;21680;52.400;16.920;2023-09-07T10:33:43;101733.28;;;25.38;57.44
35577;BME280;21680;52.400;16.920;2023-09-07T10:36:20;101733.56;;;25.47;56.99
35577;BME280;21680;52.400;16.920;2023-09-07T10:38:46;101730.50;;;25.54;56.59
35577;BME280;21680;52.400;16.920;2023-09-07T10:41:12;101730.50;;;25.61;56.29
35577;BME280;21680;52.400;16.920;2023-09-07T10:43:55;101732.64;;;25.66;56.02
35577;BME280;21680;52.400;16.920;2023-09-07T10:46:22;101731.60;;;25.77;55.84
35577;BME280;21680;52.400;16.920;2023-09-07T10:48:49;101727.44;;;25.87;55.66
35577;BME280;21680;52.400;16.920;2023-09-07T10:51:16;101719.81;;;25.98;55.42
35577;BME280;21680;52.400;16.920;2023-09-07T10:53:41;101717.29;;;26.01;55.18
35577;BME280;21680;52.400;16.920;2023-09-07T10:56:07;101717.16;;;26.04;54.68
35577;BME280;21680;52.400;16.920;2023-09-07T10:58:34;101717.06;;;26.06;54.51
35577;BME280;21680;52.400;16.920;2023-09-07T11:01:00;101718.77;;;26.09;54.33
35577;BME280;21680;52.400;16.920;2023-09-07T11:03:27;101720.17;;;26.11;53.96
35577;BME280;21680;52.400;16.920;2023-09-07T11:05:59;101719.45;;;26.17;53.77
35577;BME280;21680;52.400;16.920;2023-09-07T11:08:28;101720.02;;;26.25;53.56
35577;BME280;21680;52.400;16.920;2023-09-07T11:10:54;101716.77;;;26.32;53.46
35577;BME280;21680;52.400;16.920;2023-09-07T11:13:19;101716.89;;;26.39;53.17
35577;BME280;21680;52.400;16.920;2023-09-07T11:15:45;101711.66;;;26.44;52.81
35577;BME280;21680;52.400;16.920;2023-09-07T11:18:10;101713.86;;;26.50;52.70
35577;BME280;21680;52.400;16.920;2023-09-07T11:20:36;101715.23;;;26.53;52.17
35577;BME280;21680;52.400;16.920;2023-09-07T11:23:05;101711.11;;;26.58;51.93
35577;BME280;21680;52.400;16.920;2023-09-07T11:25:37;101704.45;;;26.64;51.66
35577;BME280;21680;52.400;16.920;2023-09-07T11:28:06;101705.76;;;26.71;51.44
35577;BME280;21680;52.400;16.920;2023-09-07T11:30:33;101704.85;;;26.81;51.28
35577;BME280;21680;52.400;16.920;2023-09-07T11:33:03;101705.28;;;26.92;51.05
35577;BME280;21680;52.400;16.920;2023-09-07T11:35:29;101705.33;;;27.01;50.82
35577;BME280;21680;52.400;16.920;2023-09-07T11:37:54;101706.48;;;27.12;50.64
35577;BME280;21680;52.400;16.920;2023-09-07T11:40:19;101703.05;;;27.25;50.46
35577;BME280;21680;52.400;16.920;2023-09-07T11:42:45;101701.40;;;27.34;50.28
35577;BME280;21680;52.400;16.920;2023-09-07T11:45:10;101697.65;;;27.46;49.98
35577;BME280;21680;52.400;16.920;2023-09-07T11:47:36;101693.45;;;27.57;49.80
35577;BME280;21680;52.400;16.920;2023-09-07T11:50:02;101692.52;;;27.67;49.66
35577;BME280;21680;52.400;16.920;2023-09-07T11:52:28;101692.17;;;27.66;49.22
35577;BME280;21680;52.400;16.920;2023-09-07T11:54:53;101693.41;;;27.67;48.99
35577;BME280;21680;52.400;16.920;2023-09-07T11:57:18;101694.14;;;27.74;48.94
35577;BME280;21680;52.400;16.920;2023-09-07T11:59:43;101690.15;;;27.83;48.60
35577;BME280;21680;52.400;16.920;2023-09-07T12:02:08;101689.41;;;27.90;48.36
35577;BME280;21680;52.400;16.920;2023-09-07T12:04:37;101687.04;;;27.90;47.84
35577;BME280;21680;52.400;16.920;2023-09-07T12:07:04;101689.89;;;27.89;47.78
35577;BME280;21680;52.400;16.920;2023-09-07T12:09:29;101690.13;;;28.01;47.83
35577;BME280;21680;52.400;16.920;2023-09-07T12:11:54;101687.80;;;28.17;47.68
35577;BME280;21680;52.400;16.920;2023-09-07T12:14:19;101683.77;;;28.26;47.36
35577;BME280;21680;52.400;16.920;2023-09-07T12:16:45;101682.00;;;28.43;47.10
35577;BME280;21680;52.400;16.920;2023-09-07T12:19:10;101681.50;;;28.55;46.99
35577;BME280;21680;52.400;16.920;2023-09-07T12:21:35;101681.66;;;28.69;46.39
35577;BME280;21680;52.400;16.920;2023-09-07T12:24:00;101678.50;;;28.81;46.15
35577;BME280;21680;52.400;16.920;2023-09-07T12:26:26;101676.21;;;28.87;45.84
35577;BME280;21680;52.400;16.920;2023-09-07T12:28:51;101677.64;;;28.92;45.39
35577;BME280;21680;52.400;16.920;2023-09-07T12:31:16;101668.05;;;28.96;45.04
35577;BME280;21680;52.400;16.920;2023-09-07T12:33:42;101668.05;;;29.01;44.64
35577;BME280;21680;52.400;16.920;2023-09-07T12:36:07;101666.37;;;29.19;44.87